createdAt,value
2022-08-11T00:00:53.652Z,99538.50
2022-08-11T00:01:56.326Z,99528.86
2022-08-11T00:02:59.345Z,99531.66
2022-08-11T00:04:02.235Z,99519.34
2022-08-11T00:05:04.801Z,99520.03
2022-08-11T00:06:07.920Z,99539.45
2022-08-11T00:07:10.448Z,99528.46
2022-08-11T00:08:13.668Z,99540.03
2022-08-11T00:09:16.235Z,99531.15
2022-08-11T00:10:19.479Z,99516.02
2022-08-11T00:11:22.187Z,99527.38
2022-08-11T00:12:26.705Z,99525.77
2022-08-11T00:13:29.685Z,99517.71
2022-08-11T00:14:37.156Z,99513.11
2022-08-11T00:15:36.763Z,99512.29
2022-08-11T00:16:39.837Z,99521.34
2022-08-11T00:17:42.504Z,99518.44
2022-08-11T00:18:45.177Z,99525.44
2022-08-11T00:20:13.846Z,99517.98
2022-08-11T00:20:52.764Z,99522.08
2022-08-11T00:22:05.292Z,99525.59
2022-08-11T00:23:00.152Z,99515.21
2022-08-11T00:24:02.720Z,99528.20
2022-08-11T00:25:05.285Z,99527.62
2022-08-11T00:26:09.089Z,99515.67
2022-08-11T00:27:14.146Z,99529.32
2022-08-11T00:28:16.448Z,99534.11
2022-08-11T00:29:19.302Z,99526.63
2022-08-11T00:30:23.759Z,99523.73
2022-08-11T00:31:26.380Z,99518.56
2022-08-11T00:32:29.031Z,99508.80
2022-08-11T00:33:44.298Z,99522.08
2022-08-11T00:34:36.273Z,99513.56
2022-08-11T00:35:53.847Z,99508.34
2022-08-11T00:36:43.765Z,99516.20
2022-08-11T00:37:46.697Z,99516.20
2022-08-11T00:38:49.309Z,99508.13
2022-08-11T00:39:52.136Z,99515.95
2022-08-11T00:40:54.952Z,99515.13
2022-08-11T00:41:58.028Z,99509.91
2022-08-11T00:43:00.659Z,99511.55
2022-08-11T00:44:03.676Z,99514.45
2022-08-11T00:45:06.204Z,99511.31
2022-08-11T00:46:09.627Z,99509.45
2022-08-11T00:47:12.317Z,99510.52
2022-08-11T00:48:14.982Z,99515.66
2022-08-11T00:49:17.536Z,99510.27
2022-08-11T00:50:20.617Z,99520.57
2022-08-11T00:51:23.284Z,99521.39
2022-08-11T00:52:25.878Z,99519.32
2022-08-11T00:53:28.520Z,99519.75
2022-08-11T00:54:33.017Z,99519.16
2022-08-11T00:55:35.599Z,99517.06
2022-08-11T00:56:38.476Z,99514.98
2022-08-11T00:57:41.148Z,99513.33
2022-08-11T00:58:43.887Z,99516.02
2022-08-11T00:59:49.464Z,99513.12
2022-08-11T01:00:52.632Z,99518.95
2022-08-11T01:01:55.513Z,99515.66
2022-08-11T01:02:58.184Z,99510.64
2022-08-11T01:04:00.807Z,99511.09
2022-08-11T01:05:03.516Z,99509.23
2022-08-11T01:06:07.977Z,99514.83
2022-08-11T01:07:11.019Z,99515.66
2022-08-11T01:08:13.601Z,99516.48
2022-08-11T01:09:21.989Z,99515.66
2022-08-11T01:10:21.183Z,99511.92
2022-08-11T01:11:23.832Z,99515.89
2022-08-11T01:12:26.505Z,99512.38
2022-08-11T01:13:29.187Z,99507.67
2022-08-11T01:14:34.128Z,99512.80
2022-08-11T01:15:36.248Z,99519.84
2022-08-11T01:16:39.637Z,99510.52
2022-08-11T01:17:42.212Z,99517.30
2022-08-11T01:18:44.878Z,99513.12
2022-08-11T01:20:44.665Z,99524.70
2022-08-11T01:20:52.775Z,99520.94
2022-08-11T01:21:55.439Z,99527.75
2022-08-11T01:22:59.376Z,99529.37
2022-08-11T01:24:02.245Z,99519.53
2022-08-11T01:25:04.885Z,99525.73
2022-08-11T01:26:08.270Z,99526.32
2022-08-11T01:27:18.871Z,99520.87
2022-08-11T01:28:15.449Z,99520.27
2022-08-11T01:29:18.124Z,99520.94
2022-08-11T01:30:22.019Z,99515.80
2022-08-11T01:31:24.744Z,99520.94
2022-08-11T01:32:27.356Z,99521.19
2022-08-11T01:33:29.916Z,99521.77
2022-08-11T01:34:32.720Z,99526.32
2022-08-11T01:35:35.323Z,99530.91
2022-08-11T01:36:39.933Z,99522.95
2022-08-11T01:37:42.855Z,99524.97
2022-08-11T01:38:45.825Z,99530.81
2022-08-11T01:39:48.618Z,99532.47
2022-08-11T01:40:51.682Z,99536.77
2022-08-11T01:41:54.301Z,99538.27
2022-08-11T01:42:57.117Z,99536.28
2022-08-11T01:44:00.123Z,99534.39
2022-08-11T01:45:02.785Z,99529.83
2022-08-11T01:46:06.053Z,99534.63
2022-08-11T01:47:08.980Z,99532.89
2022-08-11T01:48:11.600Z,99533.95
2022-08-11T01:49:14.256Z,99534.75
2022-08-11T01:50:19.377Z,99531.85
2022-08-11T01:51:21.948Z,99535.58
2022-08-11T01:52:33.631Z,99532.06
2022-08-11T01:53:29.027Z,99531.12
2022-08-11T01:54:31.594Z,99547.04
2022-08-11T01:55:34.161Z,99540.38
2022-08-11T01:56:37.048Z,99536.50
2022-08-11T01:57:39.971Z,99538.73
2022-08-11T01:58:43.497Z,99540.02
2022-08-11T01:59:47.200Z,99543.06
2022-08-11T02:00:50.513Z,99552.63
2022-08-11T02:01:53.489Z,99550.89
2022-08-11T02:02:56.435Z,99563.39
2022-08-11T02:03:59.099Z,99556.27
2022-08-11T02:05:01.637Z,99560.85
2022-08-11T02:06:04.752Z,99553.00
2022-08-11T02:07:08.939Z,99545.75
2022-08-11T02:08:11.943Z,99555.41
2022-08-11T02:09:17.131Z,99547.70
2022-08-11T02:10:20.542Z,99543.65
2022-08-11T02:11:24.955Z,99546.05
2022-08-11T02:12:28.506Z,99547.77
2022-08-11T02:13:36.879Z,99530.96
2022-08-11T02:14:37.162Z,99531.78
2022-08-11T02:15:39.830Z,99520.50
2022-08-11T02:16:42.804Z,99523.89
2022-08-11T02:17:45.431Z,99532.38
2022-08-11T02:18:48.049Z,99530.70
2022-08-11T02:19:52.552Z,99534.20
2022-08-11T02:20:55.635Z,99532.19
2022-08-11T02:21:58.300Z,99530.55
2022-08-11T02:23:00.975Z,99538.71
2022-08-11T02:24:07.687Z,99555.75
2022-08-11T02:25:08.465Z,99563.93
2022-08-11T02:26:11.745Z,99560.23
2022-08-11T02:27:14.312Z,99568.53
2022-08-11T02:28:16.881Z,99568.94
2022-08-11T02:29:19.452Z,99567.30
2022-08-11T02:30:23.959Z,99565.30
2022-08-11T02:32:23.970Z,99574.20
2022-08-11T02:32:31.242Z,99574.24
2022-08-11T02:33:34.141Z,99591.03
2022-08-11T02:34:38.636Z,99591.27
2022-08-11T02:35:41.301Z,99591.94
2022-08-11T02:36:44.275Z,99588.47
2022-08-11T02:37:46.847Z,99578.97
2022-08-11T02:38:49.390Z,99570.30
2022-08-11T02:39:52.027Z,99572.81
2022-08-11T02:40:55.875Z,99575.89
2022-08-11T02:41:58.852Z,99577.78
2022-08-11T02:43:01.827Z,99578.61
2022-08-11T02:44:04.395Z,99571.39
2022-08-11T02:45:06.960Z,99574.70
2022-08-11T02:46:17.938Z,99576.39
2022-08-11T02:47:15.170Z,99567.48
2022-08-11T02:48:17.656Z,99569.14
2022-08-11T02:49:20.196Z,99572.25
2022-08-11T02:50:23.280Z,99583.60
2022-08-11T02:51:25.797Z,99570.20
2022-08-11T02:52:28.389Z,99563.19
2022-08-11T02:53:31.280Z,99557.19
2022-08-11T02:54:33.859Z,99561.92
2022-08-11T02:55:44.629Z,99577.18
2022-08-11T02:56:41.746Z,99564.20
2022-08-11T02:57:44.577Z,99562.78
2022-08-11T02:58:47.349Z,99563.38
2022-08-11T02:59:51.294Z,99571.63
2022-08-11T03:00:54.268Z,99568.11
2022-08-11T03:02:00.730Z,99563.58
2022-08-11T03:03:01.670Z,99574.11
2022-08-11T03:04:04.427Z,99566.69
2022-08-11T03:05:07.399Z,99562.55
2022-08-11T03:06:11.258Z,99566.23
2022-08-11T03:07:28.990Z,99564.38
2022-08-11T03:08:18.414Z,99568.51
2022-08-11T03:09:20.895Z,99564.17
2022-08-11T03:10:25.256Z,99577.15
2022-08-11T03:11:27.985Z,99571.59
2022-08-11T03:12:30.540Z,99562.48
2022-08-11T03:13:33.468Z,99570.12
2022-08-11T03:14:36.036Z,99576.09
2022-08-11T03:15:38.643Z,99571.55
2022-08-11T03:16:43.376Z,99576.91
2022-08-11T03:17:46.223Z,99571.31
2022-08-11T03:18:48.756Z,99572.14
2022-08-11T03:19:51.239Z,99575.22
2022-08-11T03:20:54.506Z,99573.16
2022-08-11T03:22:03.255Z,99583.46
2022-08-11T03:23:02.307Z,99581.21
2022-08-11T03:24:04.971Z,99578.49
2022-08-11T03:25:12.370Z,99582.00
2022-08-11T03:26:12.783Z,99580.53
2022-08-11T03:27:15.441Z,99576.83
2022-08-11T03:28:18.063Z,99583.41
2022-08-11T03:29:24.948Z,99579.08
2022-08-11T03:30:25.593Z,99581.32
2022-08-11T03:31:28.262Z,99583.56
2022-08-11T03:32:30.834Z,99596.98
2022-08-11T03:33:33.411Z,99582.98
2022-08-11T03:34:35.963Z,99584.00
2022-08-11T03:35:38.530Z,99584.20
2022-08-11T03:37:15.404Z,99582.54
2022-08-11T03:37:45.712Z,99584.00
2022-08-11T03:38:48.280Z,99582.11
2022-08-11T03:39:51.104Z,99586.23
2022-08-11T03:40:55.520Z,99588.48
2022-08-11T03:42:04.235Z,99585.41
2022-08-11T03:43:03.156Z,99596.14
2022-08-11T03:44:05.886Z,99595.71
2022-08-11T03:45:08.458Z,99587.86
2022-08-11T03:46:11.777Z,99583.55
2022-08-11T03:47:14.279Z,99589.08
2022-08-11T03:48:16.811Z,99590.73
2022-08-11T03:49:19.379Z,99591.33
2022-08-11T03:50:22.455Z,99581.22
2022-08-11T03:51:25.081Z,99579.11
2022-08-11T03:52:29.840Z,99586.33
2022-08-11T03:53:32.407Z,99587.75
2022-08-11T03:54:34.973Z,99587.34
2022-08-11T03:55:37.668Z,99586.88
2022-08-11T03:56:40.624Z,99580.69
2022-08-11T03:57:43.226Z,99587.86
2022-08-11T03:58:46.253Z,99583.94
2022-08-11T03:59:49.241Z,99592.81
2022-08-11T04:00:52.537Z,99588.03
2022-08-11T04:01:55.223Z,99587.00
2022-08-11T04:02:58.274Z,99592.58
2022-08-11T04:04:00.808Z,99598.34
2022-08-11T04:05:03.425Z,99595.83
2022-08-11T04:06:06.490Z,99598.70
2022-08-11T04:07:09.156Z,99596.59
2022-08-11T04:08:13.676Z,99596.16
2022-08-11T04:09:16.345Z,99608.61
2022-08-11T04:10:19.316Z,99610.65
2022-08-11T04:11:21.914Z,99607.98
2022-08-11T04:12:36.712Z,99615.22
2022-08-11T04:13:29.075Z,99624.88
2022-08-11T04:14:31.740Z,99617.05
2022-08-11T04:15:34.412Z,99624.46
2022-08-11T04:16:37.377Z,99616.43
2022-08-11T04:17:40.152Z,99622.69
2022-08-11T04:18:42.820Z,99622.42
2022-08-11T04:19:45.388Z,99611.30
2022-08-11T04:20:48.422Z,99619.94
2022-08-11T04:21:51.092Z,99618.70
2022-08-11T04:22:54.148Z,99622.63
2022-08-11T04:24:13.177Z,99616.88
2022-08-11T04:25:02.240Z,99624.92
2022-08-11T04:26:06.292Z,99623.02
2022-08-11T04:27:14.228Z,99619.30
2022-08-11T04:28:28.380Z,99623.19
2022-08-11T04:29:19.352Z,99626.05
2022-08-11T04:30:26.767Z,99624.96
2022-08-11T04:31:50.738Z,99624.89
2022-08-11T04:32:33.906Z,99615.35
2022-08-11T04:33:36.591Z,99619.84
2022-08-11T04:34:39.448Z,99620.83
2022-08-11T04:35:43.338Z,99619.76
2022-08-11T04:36:46.695Z,99618.03
2022-08-11T04:37:53.472Z,99615.30
2022-08-11T04:38:54.080Z,99622.02
2022-08-11T04:39:56.685Z,99615.77
2022-08-11T04:40:59.622Z,99616.19
2022-08-11T04:42:03.048Z,99618.38
2022-08-11T04:43:05.719Z,99620.39
2022-08-11T04:44:08.698Z,99617.17
2022-08-11T04:45:11.221Z,99618.73
2022-08-11T04:46:15.615Z,99628.21
2022-08-11T04:47:18.271Z,99617.15
2022-08-11T04:48:20.808Z,99616.30
2022-08-11T04:49:24.210Z,99617.24
2022-08-11T04:50:29.324Z,99616.81
2022-08-11T04:51:31.987Z,99620.82
2022-08-11T04:52:38.127Z,99617.35
2022-08-11T04:53:39.376Z,99620.77
2022-08-11T04:54:41.936Z,99621.49
2022-08-11T04:55:44.504Z,99614.53
2022-08-11T04:56:47.285Z,99620.16
2022-08-11T04:57:49.908Z,99614.92
2022-08-11T04:58:53.296Z,99613.84
2022-08-11T04:59:55.906Z,99621.52
2022-08-11T05:00:59.040Z,99615.20
2022-08-11T05:02:01.849Z,99617.77
2022-08-11T05:03:04.625Z,99610.30
2022-08-11T05:04:07.296Z,99611.81
2022-08-11T05:05:09.919Z,99608.65
2022-08-11T05:06:13.049Z,99608.88
2022-08-11T05:07:15.682Z,99611.23
2022-08-11T05:08:21.951Z,99613.23
2022-08-11T05:09:22.788Z,99606.67
2022-08-11T05:10:25.864Z,99613.59
2022-08-11T05:11:28.435Z,99609.03
2022-08-11T05:12:30.924Z,99604.69
2022-08-11T05:13:33.978Z,99607.28
2022-08-11T05:14:36.605Z,99608.20
2022-08-11T05:15:42.603Z,99605.66
2022-08-11T05:16:44.340Z,99600.96
2022-08-11T05:17:46.992Z,99604.83
2022-08-11T05:18:49.839Z,99596.83
2022-08-11T05:19:52.349Z,99603.02
2022-08-11T05:20:55.329Z,99599.28
2022-08-11T05:21:57.944Z,99606.08
2022-08-11T05:23:00.565Z,99601.86
2022-08-11T05:24:03.377Z,99596.33
2022-08-11T05:25:07.700Z,99600.95
2022-08-11T05:26:46.657Z,99605.06
2022-08-11T05:27:15.645Z,99603.88
2022-08-11T05:28:18.312Z,99595.28
2022-08-11T05:29:21.173Z,99601.90
2022-08-11T05:30:25.696Z,99596.04
2022-08-11T05:31:28.268Z,99599.80
2022-08-11T05:32:30.832Z,99602.16
2022-08-11T05:33:33.395Z,99597.58
2022-08-11T05:34:36.067Z,99602.23
2022-08-11T05:36:00.312Z,99613.45
2022-08-11T05:36:46.219Z,99608.05
2022-08-11T05:37:49.096Z,99606.57
2022-08-11T05:38:51.656Z,99610.42
2022-08-11T05:39:54.356Z,99617.59
2022-08-11T05:41:00.033Z,99621.78
2022-08-11T05:42:02.123Z,99617.77
2022-08-11T05:44:21.739Z,99619.68
2022-08-11T05:45:15.263Z,99626.10
2022-08-11T05:46:18.435Z,99620.83
2022-08-11T05:47:21.000Z,99621.23
2022-08-11T05:48:23.675Z,99618.55
2022-08-11T05:49:26.442Z,99615.70
2022-08-11T05:50:33.266Z,99612.75
2022-08-11T05:51:35.979Z,99627.17
2022-08-11T05:52:38.625Z,99619.47
2022-08-11T05:53:46.106Z,99615.54
2022-08-11T05:54:47.469Z,99619.80
2022-08-11T05:56:02.304Z,99619.13
2022-08-11T05:56:55.429Z,99616.59
2022-08-11T05:57:58.034Z,99613.66
2022-08-11T05:59:00.608Z,99615.38
2022-08-11T06:00:03.887Z,99630.13
2022-08-11T06:01:07.869Z,99610.13
2022-08-11T06:02:10.659Z,99614.54
2022-08-11T06:03:13.735Z,99611.83
2022-08-11T06:04:16.344Z,99622.42
2022-08-11T06:05:19.626Z,99615.31
2022-08-11T06:06:23.281Z,99613.70
2022-08-11T06:07:26.261Z,99617.55
2022-08-11T06:08:28.928Z,99620.73
2022-08-11T06:09:31.595Z,99620.10
2022-08-11T06:10:34.879Z,99624.27
2022-08-11T06:11:44.052Z,99617.29
2022-08-11T06:12:42.168Z,99622.27
2022-08-11T06:13:45.036Z,99617.35
2022-08-11T06:14:47.716Z,99608.23
2022-08-11T06:15:50.683Z,99616.71
2022-08-11T06:16:53.657Z,99613.05
2022-08-11T06:17:56.431Z,99617.58
2022-08-11T06:18:59.100Z,99609.02
2022-08-11T06:20:07.167Z,99615.22
2022-08-11T06:21:06.212Z,99610.86
2022-08-11T06:22:08.752Z,99612.31
2022-08-11T06:23:11.483Z,99609.75
2022-08-11T06:24:14.805Z,99608.00
2022-08-11T06:25:17.334Z,99608.38
2022-08-11T06:26:21.676Z,99614.16
2022-08-11T06:27:24.207Z,99615.19
2022-08-11T06:28:26.807Z,99623.83
2022-08-11T06:29:38.292Z,99620.33
2022-08-11T06:30:34.287Z,99613.78
2022-08-11T06:31:37.091Z,99619.28
2022-08-11T06:32:40.001Z,99619.57
2022-08-11T06:33:42.816Z,99620.91
2022-08-11T06:34:45.588Z,99609.84
2022-08-11T06:35:48.118Z,99621.19
2022-08-11T06:36:51.139Z,99615.42
2022-08-11T06:37:59.155Z,99622.28
2022-08-11T06:38:58.111Z,99610.27
2022-08-11T06:40:00.822Z,99617.12
2022-08-11T06:41:03.656Z,99610.81
2022-08-11T06:42:06.744Z,99620.60
2022-08-11T06:43:09.608Z,99626.39
2022-08-11T06:44:12.481Z,99612.98
2022-08-11T06:45:15.149Z,99641.70
2022-08-11T06:46:28.445Z,99630.93
2022-08-11T06:47:22.639Z,99631.21
2022-08-11T06:48:25.218Z,99631.09
2022-08-11T06:49:27.803Z,99632.48
2022-08-11T06:50:31.361Z,99624.15
2022-08-11T06:51:33.889Z,99629.66
2022-08-11T06:52:37.076Z,99637.84
2022-08-11T06:53:39.781Z,99636.53
2022-08-11T06:54:42.349Z,99631.62
2022-08-11T06:55:55.995Z,99633.39
2022-08-11T06:56:57.496Z,99635.90
2022-08-11T06:57:53.937Z,99625.33
2022-08-11T06:58:56.464Z,99635.18
2022-08-11T06:59:59.382Z,99627.03
2022-08-11T07:01:02.008Z,99628.13
2022-08-11T07:02:04.677Z,99634.10
2022-08-11T07:03:07.388Z,99634.38
2022-08-11T07:04:09.986Z,99636.23
2022-08-11T07:05:12.520Z,99632.66
2022-08-11T07:06:16.954Z,99625.77
2022-08-11T07:07:20.011Z,99622.08
2022-08-11T07:08:34.240Z,99623.62
2022-08-11T07:09:27.399Z,99624.52
2022-08-11T07:10:30.685Z,99621.02
2022-08-11T07:11:33.308Z,99622.14
2022-08-11T07:12:35.916Z,99627.41
2022-08-11T07:13:44.461Z,99621.23
2022-08-11T07:14:43.201Z,99624.53
2022-08-11T07:16:10.989Z,99629.07
2022-08-11T07:16:50.594Z,99626.44
2022-08-11T07:17:53.395Z,99623.48
2022-08-11T07:18:56.027Z,99624.81
2022-08-11T07:19:58.597Z,99624.35
2022-08-11T07:21:02.533Z,99621.50
2022-08-11T07:22:05.690Z,99628.36
2022-08-11T07:23:08.304Z,99624.21
2022-08-11T07:24:12.345Z,99629.39
2022-08-11T07:25:14.872Z,99626.95
2022-08-11T07:26:18.400Z,99633.80
2022-08-11T07:27:20.926Z,99644.75
2022-08-11T07:28:25.699Z,99636.55
2022-08-11T07:29:28.149Z,99629.70
2022-08-11T07:30:31.537Z,99634.33
2022-08-11T07:31:34.111Z,99637.08
2022-08-11T07:32:37.057Z,99629.20
2022-08-11T07:34:07.071Z,99634.09
2022-08-11T07:34:44.257Z,99636.84
2022-08-11T07:35:46.928Z,99631.67
2022-08-11T07:36:50.415Z,99632.22
2022-08-11T07:38:01.456Z,99630.00
2022-08-11T07:38:57.804Z,99619.86
2022-08-11T07:40:00.420Z,99622.77
2022-08-11T07:41:03.140Z,99631.08
2022-08-11T07:42:05.769Z,99633.51
2022-08-11T07:43:08.375Z,99621.20
2022-08-11T07:44:10.944Z,99619.73
2022-08-11T07:45:13.508Z,99612.94
2022-08-11T07:46:17.104Z,99615.82
2022-08-11T07:47:19.626Z,99614.88
2022-08-11T07:48:22.441Z,99614.84
2022-08-11T07:49:25.009Z,99620.69
2022-08-11T07:50:28.085Z,99616.05
2022-08-11T07:51:30.611Z,99612.13
2022-08-11T07:52:33.403Z,99610.36
2022-08-11T07:53:57.992Z,99609.95
2022-08-11T07:54:40.504Z,99611.19
2022-08-11T07:55:50.280Z,99615.75
2022-08-11T07:56:54.902Z,99620.09
2022-08-11T07:58:16.476Z,99618.83
2022-08-11T07:59:02.486Z,99618.55
2022-08-11T08:00:03.362Z,99618.59
2022-08-11T08:01:08.611Z,99615.11
2022-08-11T08:02:11.306Z,99618.72
2022-08-11T08:03:14.208Z,99616.34
2022-08-11T08:04:17.224Z,99614.70
2022-08-11T08:05:19.892Z,99624.74
2022-08-11T08:06:36.530Z,99621.06
2022-08-11T08:07:28.951Z,99618.77
2022-08-11T08:08:32.820Z,99619.98
2022-08-11T08:09:35.792Z,99625.77
2022-08-11T08:10:39.034Z,99627.33
2022-08-11T08:11:41.601Z,99636.47
2022-08-11T08:12:44.311Z,99628.05
2022-08-11T08:13:46.891Z,99630.55
2022-08-11T08:14:51.493Z,99627.86
2022-08-11T08:15:54.272Z,99635.45
2022-08-11T08:16:58.176Z,99634.66
2022-08-11T08:18:10.070Z,99632.17
2022-08-11T08:19:05.189Z,99634.31
2022-08-11T08:20:07.920Z,99636.65
2022-08-11T08:21:10.685Z,99637.75
2022-08-11T08:22:48.590Z,99636.11
2022-08-11T08:23:17.871Z,99634.78
2022-08-11T08:24:20.846Z,99634.52
2022-08-11T08:25:23.412Z,99629.88
2022-08-11T08:26:27.114Z,99636.98
2022-08-11T08:27:30.082Z,99636.72
2022-08-11T08:28:34.636Z,99640.51
2022-08-11T08:29:37.300Z,99635.59
2022-08-11T08:30:41.678Z,99633.41
2022-08-11T08:31:44.373Z,99636.44
2022-08-11T08:32:46.973Z,99633.70
2022-08-11T08:33:49.590Z,99638.03
2022-08-11T08:34:52.120Z,99637.98
2022-08-11T08:35:56.239Z,99636.36
2022-08-11T08:36:59.121Z,99636.65
2022-08-11T08:38:01.690Z,99641.31
2022-08-11T08:39:04.255Z,99646.48
2022-08-11T08:40:07.333Z,99634.02
2022-08-11T08:41:10.314Z,99644.55
2022-08-11T08:42:14.744Z,99638.34
2022-08-11T08:43:17.397Z,99651.02
2022-08-11T08:44:37.757Z,99640.23
2022-08-11T08:45:24.685Z,99635.40
2022-08-11T08:46:29.188Z,99636.48
2022-08-11T08:47:41.647Z,99637.06
2022-08-11T08:48:36.271Z,99629.20
2022-08-11T08:49:40.136Z,99625.94
2022-08-11T08:50:44.170Z,99637.41
2022-08-11T08:52:01.571Z,99640.36
2022-08-11T08:52:53.191Z,99631.34
2022-08-11T08:53:58.321Z,99636.48
2022-08-11T08:55:00.377Z,99621.70
2022-08-11T08:56:03.357Z,99622.59
2022-08-11T08:57:05.978Z,99623.14
2022-08-11T08:58:08.547Z,99627.20
2022-08-11T08:59:11.157Z,99629.75
2022-08-11T09:00:20.736Z,99628.67
2022-08-11T09:01:20.464Z,99638.13
2022-08-11T09:02:43.800Z,99634.00
2022-08-11T09:04:07.298Z,99625.89
2022-08-11T09:04:33.005Z,99630.29
2022-08-11T09:05:35.976Z,99635.15
2022-08-11T09:06:38.952Z,99630.03
2022-08-11T09:07:42.002Z,99630.61
2022-08-11T09:08:44.923Z,99631.64
2022-08-11T09:09:47.577Z,99633.80
2022-08-11T09:10:50.296Z,99631.34
2022-08-11T09:11:53.112Z,99637.91
2022-08-11T09:12:55.892Z,99632.45
2022-08-11T09:14:03.209Z,99634.39
2022-08-11T09:15:03.072Z,99629.77
2022-08-11T09:16:05.998Z,99633.84
2022-08-11T09:17:08.608Z,99626.22
2022-08-11T09:18:11.218Z,99625.66
2022-08-11T09:19:13.850Z,99632.46
2022-08-11T09:20:17.909Z,99624.61
2022-08-11T09:21:39.287Z,99621.06
2022-08-11T09:22:25.639Z,99626.75
2022-08-11T09:24:33.234Z,99621.27
2022-08-11T09:25:35.802Z,99614.66
2022-08-11T09:26:38.735Z,99616.99
2022-08-11T09:27:41.376Z,99617.83
2022-08-11T09:28:46.367Z,99616.67
2022-08-11T09:29:48.932Z,99611.66
2022-08-11T09:30:51.705Z,99616.91
2022-08-11T09:31:54.271Z,99626.61
2022-08-11T09:32:56.863Z,99619.41
2022-08-11T09:33:59.713Z,99609.43
2022-08-11T09:35:02.237Z,99613.95
2022-08-11T09:36:05.052Z,99621.61
2022-08-11T09:37:07.787Z,99620.58
2022-08-11T09:38:10.247Z,99612.87
2022-08-11T09:39:12.885Z,99612.73
2022-08-11T09:40:17.255Z,99612.16
2022-08-11T09:41:20.875Z,99608.80
2022-08-11T09:42:25.636Z,99603.21
2022-08-11T09:43:28.617Z,99600.49
2022-08-11T09:44:31.216Z,99607.25
2022-08-11T09:45:40.135Z,99604.88
2022-08-11T09:46:39.428Z,99613.56
2022-08-11T09:47:42.197Z,99614.19
2022-08-11T09:48:44.867Z,99611.05
2022-08-11T09:49:47.394Z,99624.44
2022-08-11T09:50:50.411Z,99618.33
2022-08-11T09:52:02.288Z,99623.25
2022-08-11T09:53:36.808Z,99617.08
2022-08-11T09:54:02.851Z,99613.73
2022-08-11T09:55:06.819Z,99623.45
2022-08-11T09:56:10.829Z,99621.81
2022-08-11T09:57:13.452Z,99618.64
2022-08-11T09:58:41.537Z,99616.62
2022-08-11T09:59:20.576Z,99619.20
2022-08-11T10:00:23.972Z,99617.22
2022-08-11T10:01:26.663Z,99620.73
2022-08-11T10:02:29.298Z,99618.38
2022-08-11T10:03:31.972Z,99624.88
2022-08-11T10:04:34.997Z,99619.13
2022-08-11T10:05:37.629Z,99627.89
2022-08-11T10:06:40.937Z,99626.80
2022-08-11T10:07:44.601Z,99615.93
2022-08-11T10:08:47.158Z,99629.03
2022-08-11T10:09:49.849Z,99620.53
2022-08-11T10:10:52.820Z,99627.30
2022-08-11T10:11:58.060Z,99623.67
2022-08-11T10:12:59.903Z,99614.66
2022-08-11T10:14:33.387Z,99621.98
2022-08-11T10:15:06.860Z,99623.73
2022-08-11T10:16:15.690Z,99613.81
2022-08-11T10:17:14.958Z,99620.07
2022-08-11T10:18:17.532Z,99629.07
2022-08-11T10:19:20.193Z,99614.84
2022-08-11T10:20:25.894Z,99615.08
2022-08-11T10:21:30.453Z,99614.12
2022-08-11T10:22:33.222Z,99613.47
2022-08-11T10:23:36.152Z,99618.23
2022-08-11T10:24:40.711Z,99618.97
2022-08-11T10:25:43.277Z,99618.57
2022-08-11T10:26:45.955Z,99618.42
2022-08-11T10:28:17.578Z,99610.64
2022-08-11T10:29:12.199Z,99612.83
2022-08-11T10:29:57.758Z,99607.84
2022-08-11T10:31:02.559Z,99609.17
2022-08-11T10:32:06.972Z,99606.97
2022-08-11T10:33:10.664Z,99617.83
2022-08-11T10:34:15.137Z,99602.63
2022-08-11T10:35:19.648Z,99607.89
2022-08-11T10:36:23.999Z,99601.02
2022-08-11T10:38:06.295Z,99601.30
2022-08-11T10:38:32.819Z,99600.08
2022-08-11T10:39:35.414Z,99599.88
2022-08-11T10:40:39.037Z,99597.45
2022-08-11T10:42:08.644Z,99594.22
2022-08-11T10:42:57.925Z,99593.48
2022-08-11T10:44:02.786Z,99595.69
2022-08-11T10:44:56.546Z,99597.63
2022-08-11T10:45:59.143Z,99597.98
2022-08-11T10:47:02.568Z,99583.91
2022-08-11T10:48:05.239Z,99572.50
2022-08-11T10:49:07.923Z,99582.44
2022-08-11T10:50:12.332Z,99585.22
2022-08-11T10:51:15.037Z,99579.61
2022-08-11T10:52:17.613Z,99583.69
2022-08-11T10:53:20.140Z,99583.11
2022-08-11T10:54:22.891Z,99582.61
2022-08-11T10:55:25.416Z,99572.44
2022-08-11T10:56:29.874Z,99578.31
2022-08-11T10:57:34.524Z,99579.48
2022-08-11T10:58:37.175Z,99575.73
2022-08-11T10:59:39.725Z,99579.74
2022-08-11T11:00:42.498Z,99573.96
2022-08-11T11:01:45.602Z,99577.58
2022-08-11T11:03:07.108Z,99578.01
2022-08-11T11:03:53.477Z,99570.49
2022-08-11T11:04:56.100Z,99577.86
2022-08-11T11:06:28.531Z,99586.59
2022-08-11T11:07:03.440Z,99588.16
2022-08-11T11:08:06.341Z,99578.50
2022-08-11T11:09:08.967Z,99585.80
2022-08-11T11:10:12.883Z,99579.25
2022-08-11T11:11:18.191Z,99589.20
2022-08-11T11:12:20.148Z,99585.94
2022-08-11T11:13:22.836Z,99589.30
2022-08-11T11:14:27.155Z,99588.47
2022-08-11T11:15:29.995Z,99593.66
2022-08-11T11:16:34.511Z,99588.16
2022-08-11T11:17:37.075Z,99597.44
2022-08-11T11:18:39.600Z,99581.96
2022-08-11T11:19:42.067Z,99598.14
2022-08-11T11:20:47.528Z,99598.13
2022-08-11T11:21:49.701Z,99595.32
2022-08-11T11:22:52.329Z,99596.14
2022-08-11T11:23:55.141Z,99601.21
2022-08-11T11:24:57.667Z,99604.02
2022-08-11T11:26:00.276Z,99605.73
2022-08-11T11:27:03.072Z,99602.67
2022-08-11T11:28:05.720Z,99604.22
2022-08-11T11:29:08.593Z,99604.42
2022-08-11T11:30:12.013Z,99609.40
2022-08-11T11:31:15.850Z,99611.63
2022-08-11T11:32:18.886Z,99607.39
2022-08-11T11:33:21.626Z,99607.30
2022-08-11T11:34:24.497Z,99612.30
2022-08-11T11:35:27.064Z,99604.76
2022-08-11T11:36:30.144Z,99608.62
2022-08-11T11:37:32.813Z,99607.64
2022-08-11T11:38:36.405Z,99614.41
2022-08-11T11:39:39.145Z,99609.22
2022-08-11T11:40:42.048Z,99610.33
2022-08-11T11:41:45.024Z,99609.18
2022-08-11T11:42:48.020Z,99614.48
2022-08-11T11:43:53.028Z,99604.71
2022-08-11T11:44:56.164Z,99620.70
2022-08-11T11:45:59.392Z,99612.06
2022-08-11T11:47:02.065Z,99609.18
2022-08-11T11:48:05.054Z,99609.23
2022-08-11T11:49:13.985Z,99608.33
2022-08-11T11:50:13.438Z,99603.95
2022-08-11T11:51:16.461Z,99611.71
2022-08-11T11:52:18.997Z,99599.05
2022-08-11T11:53:21.665Z,99602.33
2022-08-11T11:54:24.325Z,99611.22
2022-08-11T11:55:26.917Z,99612.70
2022-08-11T11:56:30.076Z,99613.05
2022-08-11T11:57:34.550Z,99611.70
2022-08-11T11:58:37.153Z,99611.59
2022-08-11T11:59:39.732Z,99600.41
2022-08-11T12:00:43.539Z,99622.97
2022-08-11T12:01:50.246Z,99614.41
2022-08-11T12:02:50.917Z,99607.19
2022-08-11T12:03:53.571Z,99608.32
2022-08-11T12:04:56.344Z,99609.49
2022-08-11T12:05:58.907Z,99608.06
2022-08-11T12:07:02.007Z,99605.53
2022-08-11T12:08:10.617Z,99609.50
2022-08-11T12:09:09.032Z,99616.29
2022-08-11T12:10:12.310Z,99613.20
2022-08-11T12:11:14.876Z,99603.81
2022-08-11T12:12:17.484Z,99615.73
2022-08-11T12:13:20.073Z,99608.56
2022-08-11T12:14:22.780Z,99611.72
2022-08-11T12:16:04.334Z,99609.64
2022-08-11T12:16:33.834Z,99613.06
2022-08-11T12:17:35.041Z,99605.09
2022-08-11T12:18:37.663Z,99609.14
2022-08-11T12:19:40.269Z,99614.71
2022-08-11T12:20:44.946Z,99611.39
2022-08-11T12:21:51.441Z,99611.13
2022-08-11T12:22:52.172Z,99608.77
2022-08-11T12:23:54.737Z,99611.52
2022-08-11T12:24:57.508Z,99608.59